sensor_id;sensor_type;location;lat;lon;timestamp;pressure;altitude;pressure_sealevel;temperature;humidity
62011;BME280;47967;51.756;10.174;2023-01-27T05:02:39;100328.53;;;1.75;86.01
62011;BME280;47967;51.756;10.174;2023-01-27T05:06:42;100332.28;;;1.73;86.29
62011;BME280;47967;51.756;10.174;2023-01-27T05:10:44;100339.88;;;1.78;85.99
62011;BME280;47967;51.756;10.174;2023-01-27T05:14:47;100332.06;;;1.76;86.11
62011;BME280;47967;51.756;10.174;2023-01-27T05:18:51;100350.59;;;1.87;85.69
62011;BME280;47967;51.756;10.174;2023-01-27T05:22:54;100350.91;;;1.94;85.67
62011;BME280;47967;51.756;10.174;2023-01-27T05:27:16;100353.84;;;1.91;85.63
62011;BME280;47967;51.756;10.174;2023-01-27T05:31:20;100346.19;;;1.98;85.58
62011;BME280;47967;51.756;10.174;2023-01-27T05:35:25;100348.97;;;1.96;85.81
62011;BME280;47967;51.756;10.174;2023-01-27T05:39:27;100360.72;;;1.94;85.54
62011;BME280;47967;51.756;10.174;2023-01-27T05:43:32;100362.28;;;1.96;85.59
62011;BME280;47967;51.756;10.174;2023-01-27T05:47:47;100367.88;;;1.93;86.01
62011;BME280;47967;51.756;10.174;2023-01-27T05:51:51;100376.81;;;1.92;85.34
62011;BME280;47967;51.756;10.174;2023-01-27T05:55:54;100381.13;;;2.04;85.34
62011;BME280;47967;51.756;10.174;2023-01-27T05:59:56;100380.34;;;2.14;84.16
62011;BME280;47967;51.756;10.174;2023-01-27T06:03:59;100376.88;;;2.23;83.29
62011;BME280;47967;51.756;10.174;2023-01-27T06:08:03;100388.22;;;2.46;82.56
62011;BME280;47967;51.756;10.174;2023-01-27T06:12:06;100387.53;;;2.44;81.37
62011;BME280;47967;51.756;10.174;2023-01-27T06:16:11;100391.91;;;2.55;81.22
62011;BME280;47967;51.756;10.174;2023-01-27T06:20:14;100395.16;;;2.59;81.27
62011;BME280;47967;51.756;10.174;2023-01-27T06:24:18;100390.81;;;2.58;81.69
62011;BME280;47967;51.756;10.174;2023-01-27T06:28:22;100400.72;;;2.46;82.28
62011;BME280;47967;51.756;10.174;2023-01-27T06:32:29;100397.84;;;2.37;82.48
62011;BME280;47967;51.756;10.174;2023-01-27T06:36:32;100401.75;;;2.33;82.37
62011;BME280;47967;51.756;10.174;2023-01-27T06:40:36;100409.16;;;2.30;83.06
62011;BME280;47967;51.756;10.174;2023-01-27T06:44:38;100402.72;;;2.32;83.67
62011;BME280;47967;51.756;10.174;2023-01-27T06:48:41;100410.59;;;2.34;83.36
62011;BME280;47967;51.756;10.174;2023-01-27T06:52:44;100422.94;;;2.35;83.01
62011;BME280;47967;51.756;10.174;2023-01-27T06:56:47;100426.94;;;2.29;83.01
62011;BME280;47967;51.756;10.174;2023-01-27T07:00:50;100427.88;;;2.39;82.73
62011;BME280;47967;51.756;10.174;2023-01-27T07:04:53;100434.47;;;2.45;82.30
62011;BME280;47967;51.756;10.174;2023-01-27T07:08:56;100442.22;;;2.48;82.60
62011;BME280;47967;51.756;10.174;2023-01-27T07:13:10;100442.53;;;2.55;82.25
62011;BME280;47967;51.756;10.174;2023-01-27T07:17:13;100439.50;;;2.38;82.46
62011;BME280;47967;51.756;10.174;2023-01-27T07:21:16;100446.16;;;2.33;83.45
62011;BME280;47967;51.756;10.174;2023-01-27T07:25:18;100452.97;;;2.26;83.39
62011;BME280;47967;51.756;10.174;2023-01-27T07:29:22;100455.06;;;2.22;83.94
62011;BME280;47967;51.756;10.174;2023-01-27T07:33:25;100454.94;;;2.23;83.86
62011;BME280;47967;51.756;10.174;2023-01-27T07:37:27;100464.22;;;2.29;83.84
62011;BME280;47967;51.756;10.174;2023-01-27T07:41:30;100471.38;;;2.29;83.93
62011;BME280;47967;51.756;10.174;2023-01-27T07:45:34;100469.75;;;2.37;83.81
62011;BME280;47967;51.756;10.174;2023-01-27T07:49:36;100476.78;;;2.38;83.52
62011;BME280;47967;51.756;10.174;2023-01-27T07:53:39;100465.22;;;2.49;83.77
62011;BME280;47967;51.756;10.174;2023-01-27T07:57:42;100473.50;;;2.56;83.26
62011;BME280;47967;51.756;10.174;2023-01-27T08:01:46;100461.06;;;2.56;82.84
62011;BME280;47967;51.756;10.174;2023-01-27T08:05:49;100465.97;;;2.61;82.97
62011;BME280;47967;51.756;10.174;2023-01-27T08:09:51;100477.53;;;2.71;82.63
62011;BME280;47967;51.756;10.174;2023-01-27T08:13:55;100471.44;;;2.81;82.20
62011;BME280;47967;51.756;10.174;2023-01-27T08:17:59;100468.34;;;2.85;82.06
62011;BME280;47967;51.756;10.174;2023-01-27T08:22:02;100468.94;;;2.89;81.86
62011;BME280;47967;51.756;10.174;2023-01-27T08:26:05;100466.72;;;2.94;81.51
62011;BME280;47967;51.756;10.174;2023-01-27T08:30:09;100471.34;;;2.92;81.09
62011;BME280;47967;51.756;10.174;2023-01-27T08:34:14;100475.97;;;3.21;80.58
62011;BME280;47967;51.756;10.174;2023-01-27T08:38:18;100481.78;;;3.46;78.98
62011;BME280;47967;51.756;10.174;2023-01-27T08:42:22;100490.25;;;3.71;78.49
62011;BME280;47967;51.756;10.174;2023-01-27T08:46:24;100486.06;;;3.68;77.94
62011;BME280;47967;51.756;10.174;2023-01-27T08:50:28;100488.91;;;3.86;77.15
62011;BME280;47967;51.756;10.174;2023-01-27T08:54:31;100503.78;;;3.79;76.75
62011;BME280;47967;51.756;10.174;2023-01-27T08:58:34;100503.19;;;3.75;77.76
62011;BME280;47967;51.756;10.174;2023-01-27T09:02:36;100507.00;;;3.73;78.33
62011;BME280;47967;51.756;10.174;2023-01-27T09:06:40;100509.75;;;3.61;78.86
62011;BME280;47967;51.756;10.174;2023-01-27T09:10:43;100513.44;;;3.70;79.03
62011;BME280;47967;51.756;10.174;2023-01-27T09:14:45;100521.59;;;3.78;78.53
62011;BME280;47967;51.756;10.174;2023-01-27T09:18:48;100511.38;;;3.93;78.10
62011;BME280;47967;51.756;10.174;2023-01-27T09:22:53;100517.00;;;4.00;77.96
62011;BME280;47967;51.756;10.174;2023-01-27T09:26:56;100509.88;;;4.30;77.70
62011;BME280;47967;51.756;10.174;2023-01-27T09:31:01;100527.28;;;4.44;76.18
62011;BME280;47967;51.756;10.174;2023-01-27T09:35:04;100521.38;;;4.50;75.33
62011;BME280;47967;51.756;10.174;2023-01-27T09:39:08;100535.16;;;4.45;74.84
62011;BME280;47967;51.756;10.174;2023-01-27T09:43:14;100531.66;;;4.45;75.33
62011;BME280;47967;51.756;10.174;2023-01-27T09:47:34;100524.03;;;4.60;74.52
62011;BME280;47967;51.756;10.174;2023-01-27T09:51:50;100528.13;;;4.64;74.98
62011;BME280;47967;51.756;10.174;2023-01-27T09:55:58;100548.22;;;4.58;74.98
62011;BME280;47967;51.756;10.174;2023-01-27T10:00:10;100538.13;;;4.42;75.70
62011;BME280;47967;51.756;10.174;2023-01-27T10:04:34;100527.28;;;4.34;76.28
62011;BME280;47967;51.756;10.174;2023-01-27T10:09:06;100543.16;;;4.36;76.86
62011;BME280;47967;51.756;10.174;2023-01-27T10:13:18;100536.28;;;4.43;76.04
62011;BME280;47967;51.756;10.174;2023-01-27T10:17:33;100539.09;;;4.51;75.76
62011;BME280;47967;51.756;10.174;2023-01-27T10:21:48;100535.69;;;4.69;75.36
62011;BME280;47967;51.756;10.174;2023-01-27T10:25:57;100526.66;;;4.89;75.12
62011;BME280;47967;51.756;10.174;2023-01-27T10:30:12;100530.91;;;4.72;74.66
62011;BME280;47967;51.756;10.174;2023-01-27T10:34:25;100536.69;;;4.77;75.23
62011;BME280;47967;51.756;10.174;2023-01-27T10:38:34;100543.41;;;4.81;75.38
62011;BME280;47967;51.756;10.174;2023-01-27T10:42:43;100551.19;;;5.22;75.10
62011;BME280;47967;51.756;10.174;2023-01-27T10:46:58;100549.53;;;5.21;74.06
62011;BME280;47967;51.756;10.174;2023-01-27T10:51:06;100551.56;;;5.00;75.33
62011;BME280;47967;51.756;10.174;2023-01-27T10:55:14;100553.59;;;5.25;74.92
62011;BME280;47967;51.756;10.174;2023-01-27T10:59:22;100546.28;;;5.27;75.16
62011;BME280;47967;51.756;10.174;2023-01-27T11:03:32;100538.88;;;5.11;75.23
62011;BME280;47967;51.756;10.174;2023-01-27T11:07:45;100536.63;;;5.07;76.02
62011;BME280;47967;51.756;10.174;2023-01-27T11:11:49;100533.28;;;4.85;76.47
62011;BME280;47967;51.756;10.174;2023-01-27T11:15:52;100518.81;;;4.78;77.63
62011;BME280;47967;51.756;10.174;2023-01-27T11:19:59;100517.53;;;4.72;77.47
62011;BME280;47967;51.756;10.174;2023-01-27T11:24:20;100523.72;;;4.83;76.80
62011;BME280;47967;51.756;10.174;2023-01-27T11:28:30;100515.16;;;4.79;76.21
62011;BME280;47967;51.756;10.174;2023-01-27T11:32:43;100522.94;;;5.10;75.70
62011;BME280;47967;51.756;10.174;2023-01-27T11:36:50;100525.91;;;5.07;74.99
62011;BME280;47967;51.756;10.174;2023-01-27T11:40:53;100531.53;;;5.13;74.89
62011;BME280;47967;51.756;10.174;2023-01-27T11:44:56;100534.94;;;5.06;74.19
62011;BME280;47967;51.756;10.174;2023-01-27T11:48:59;100528.41;;;5.18;73.61
62011;BME280;47967;51.756;10.174;2023-01-27T11:53:15;100532.22;;;5.16;73.36
62011;BME280;47967;51.756;10.174;2023-01-27T11:57:20;100533.53;;;5.39;72.93
62011;BME280;47967;51.756;10.174;2023-01-27T12:01:31;100528.88;;;5.41;72.75
62011;BME280;47967;51.756;10.174;2023-01-27T12:05:41;100532.09;;;5.45;72.74
62011;BME280;47967;51.756;10.174;2023-01-27T12:09:47;100528.41;;;5.56;72.70
62011;BME280;47967;51.756;10.174;2023-01-27T12:13:52;100536.66;;;5.63;72.06
62011;BME280;47967;51.756;10.174;2023-01-27T12:17:57;100537.97;;;5.58;71.79
62011;BME280;47967;51.756;10.174;2023-01-27T12:22:07;100538.72;;;5.51;71.63
62011;BME280;47967;51.756;10.174;2023-01-27T12:26:12;100536.81;;;5.33;71.72
62011;BME280;47967;51.756;10.174;2023-01-27T12:30:19;100546.63;;;5.05;72.21
62011;BME280;47967;51.756;10.174;2023-01-27T12:34:26;100538.69;;;5.23;72.29
62011;BME280;47967;51.756;10.174;2023-01-27T12:38:33;100531.41;;;4.95;72.96
62011;BME280;47967;51.756;10.174;2023-01-27T12:42:40;100529.44;;;4.97;73.61
62011;BME280;47967;51.756;10.174;2023-01-27T12:46:56;100529.22;;;4.81;74.02
62011;BME280;47967;51.756;10.174;2023-01-27T12:51:35;100532.03;;;4.70;74.16
62011;BME280;47967;51.756;10.174;2023-01-27T12:55:42;100517.44;;;4.64;74.64
62011;BME280;47967;51.756;10.174;2023-01-27T12:59:50;100524.19;;;4.39;75.18
62011;BME280;47967;51.756;10.174;2023-01-27T13:03:56;100528.81;;;4.46;74.90
62011;BME280;47967;51.756;10.174;2023-01-27T13:08:16;100523.22;;;4.40;75.39
62011;BME280;47967;51.756;10.174;2023-01-27T13:12:21;100523.78;;;4.43;74.53
62011;BME280;47967;51.756;10.174;2023-01-27T13:16:29;100528.00;;;4.36;74.62
62011;BME280;47967;51.756;10.174;2023-01-27T13:20:38;100531.66;;;4.25;75.25
62011;BME280;47967;51.756;10.174;2023-01-27T13:24:42;100530.94;;;4.23;75.62
62011;BME280;47967;51.756;10.174;2023-01-27T13:28:50;100537.69;;;4.08;76.34
62011;BME280;47967;51.756;10.174;2023-01-27T13:32:59;100539.06;;;4.02;77.23
62011;BME280;47967;51.756;10.174;2023-01-27T13:37:08;100532.78;;;4.13;76.72
62011;BME280;47967;51.756;10.174;2023-01-27T13:41:17;100533.44;;;3.95;76.89
62011;BME280;47967;51.756;10.174;2023-01-27T13:45:24;100528.81;;;3.97;76.40
62011;BME280;47967;51.756;10.174;2023-01-27T13:49:34;100543.69;;;4.00;76.53
62011;BME280;47967;51.756;10.174;2023-01-27T13:53:39;100549.16;;;3.89;76.92
62011;BME280;47967;51.756;10.174;2023-01-27T13:57:53;100544.94;;;3.86;77.16
62011;BME280;47967;51.756;10.174;2023-01-27T14:02:13;100551.84;;;3.98;77.14
62011;BME280;47967;51.756;10.174;2023-01-27T14:06:47;100544.44;;;4.12;76.33
62011;BME280;47967;51.756;10.174;2023-01-27T14:11:11;100551.56;;;4.01;75.88
62011;BME280;47967;51.756;10.174;2023-01-27T14:15:25;100558.03;;;4.09;75.54
62011;BME280;47967;51.756;10.174;2023-01-27T14:19:36;100559.31;;;4.14;74.25
62011;BME280;47967;51.756;10.174;2023-01-27T14:23:51;100562.97;;;4.04;74.79
62011;BME280;47967;51.756;10.174;2023-01-27T14:27:59;100569.81;;;3.96;75.29
62011;BME280;47967;51.756;10.174;2023-01-27T14:32:18;100566.47;;;3.94;75.66
62011;BME280;47967;51.756;10.174;2023-01-27T14:36:26;100568.13;;;3.85;75.06
62011;BME280;47967;51.756;10.174;2023-01-27T14:40:38;100569.81;;;3.87;75.44
62011;BME280;47967;51.756;10.174;2023-01-27T14:44:52;100567.22;;;3.65;76.24
62011;BME280;47967;51.756;10.174;2023-01-27T14:49:24;100588.72;;;3.64;76.79
62011;BME280;47967;51.756;10.174;2023-01-27T14:53:41;100577.03;;;3.65;76.99
62011;BME280;47967;51.756;10.174;2023-01-27T14:57:55;100586.19;;;3.72;77.01
62011;BME280;47967;51.756;10.174;2023-01-27T15:02:06;100579.03;;;3.63;76.49
62011;BME280;47967;51.756;10.174;2023-01-27T15:06:16;100590.66;;;3.62;77.18
62011;BME280;47967;51.756;10.174;2023-01-27T15:10:25;100602.22;;;3.41;77.48
62011;BME280;47967;51.756;10.174;2023-01-27T15:14:42;100600.63;;;3.29;78.48
62011;BME280;47967;51.756;10.174;2023-01-27T15:19:08;100605.56;;;3.12;79.52
62011;BME280;47967;51.756;10.174;2023-01-27T15:23:25;100615.53;;;3.10;79.33
62011;BME280;47967;51.756;10.174;2023-01-27T15:27:32;100627.13;;;2.88;80.28
62011;BME280;47967;51.756;10.174;2023-01-27T15:31:37;100640.22;;;2.91;79.96
62011;BME280;47967;51.756;10.174;2023-01-27T15:35:39;100645.75;;;2.99;80.33
62011;BME280;47967;51.756;10.174;2023-01-27T15:39:53;100655.47;;;3.00;79.47
62011;BME280;47967;51.756;10.174;2023-01-27T15:44:14;100661.31;;;3.15;78.84
62011;BME280;47967;51.756;10.174;2023-01-27T15:48:21;100661.09;;;3.07;78.25
62011;BME280;47967;51.756;10.174;2023-01-27T15:52:28;100664.50;;;3.09;78.47
62011;BME280;47967;51.756;10.174;2023-01-27T15:56:40;100673.22;;;2.79;79.83
62011;BME280;47967;51.756;10.174;2023-01-27T16:00:49;100673.00;;;2.70;80.61
62011;BME280;47967;51.756;10.174;2023-01-27T16:04:57;100673.97;;;2.69;81.23
62011;BME280;47967;51.756;10.174;2023-01-27T16:09:06;100673.16;;;2.69;80.94
62011;BME280;47967;51.756;10.174;2023-01-27T16:13:24;100674.13;;;2.68;80.73
62011;BME280;47967;51.756;10.174;2023-01-27T16:17:31;100675.44;;;2.62;80.85
62011;BME280;47967;51.756;10.174;2023-01-27T16:21:43;100673.56;;;2.53;81.12
62011;BME280;47967;51.756;10.174;2023-01-27T16:25:53;100674.63;;;2.62;81.36
62011;BME280;47967;51.756;10.174;2023-01-27T16:30:15;100682.06;;;2.79;80.74
62011;BME280;47967;51.756;10.174;2023-01-27T16:34:21;100685.00;;;2.76;79.49
62011;BME280;47967;51.756;10.174;2023-01-27T16:38:29;100682.06;;;2.79;79.16
62011;BME280;47967;51.756;10.174;2023-01-27T16:42:35;100693.00;;;2.76;79.27
62011;BME280;47967;51.756;10.174;2023-01-27T16:46:41;100691.78;;;2.69;80.09
62011;BME280;47967;51.756;10.174;2023-01-27T16:50:47;100704.06;;;2.60;80.41
62011;BME280;47967;51.756;10.174;2023-01-27T16:54:51;100701.13;;;2.63;80.39
62011;BME280;47967;51.756;10.174;2023-01-27T16:58:58;100701.59;;;2.68;80.75
62011;BME280;47967;51.756;10.174;2023-01-27T17:03:07;100724.50;;;2.60;80.86
62011;BME280;47967;51.756;10.174;2023-01-27T17:07:11;100720.75;;;2.62;81.11
62011;BME280;47967;51.756;10.174;2023-01-27T17:11:21;100716.16;;;2.64;81.21
62011;BME280;47967;51.756;10.174;2023-01-27T17:15:28;100706.72;;;2.60;80.86
62011;BME280;47967;51.756;10.174;2023-01-27T17:19:32;100722.97;;;2.46;80.94
62011;BME280;47967;51.756;10.174;2023-01-27T17:23:36;100724.31;;;2.40;81.45
62011;BME280;47967;51.756;10.174;2023-01-27T17:27:41;100727.22;;;2.37;81.60
62011;BME280;47967;51.756;10.174;2023-01-27T17:31:45;100728.44;;;2.44;81.52
62011;BME280;47967;51.756;10.174;2023-01-27T17:35:50;100739.66;;;2.48;81.63
62011;BME280;47967;51.756;10.174;2023-01-27T17:39:55;100741.13;;;2.52;81.33
62011;BME280;47967;51.756;10.174;2023-01-27T17:43:59;100738.31;;;2.53;81.25
62011;BME280;47967;51.756;10.174;2023-01-27T17:48:03;100742.59;;;2.45;81.41
62011;BME280;47967;51.756;10.174;2023-01-27T17:52:07;100750.22;;;2.49;81.14
62011;BME280;47967;51.756;10.174;2023-01-27T17:56:13;100761.34;;;2.43;81.29
62011;BME280;47967;51.756;10.174;2023-01-27T18:00:23;100750.44;;;2.46;81.92
62011;BME280;47967;51.756;10.174;2023-01-27T18:04:27;100756.38;;;2.50;81.36
62011;BME280;47967;51.756;10.174;2023-01-27T18:08:32;100754.19;;;2.44;81.50
62011;BME280;47967;51.756;10.174;2023-01-27T18:12:36;100756.22;;;2.51;81.69
62011;BME280;47967;51.756;10.174;2023-01-27T18:16:40;100758.44;;;2.46;82.10
62011;BME280;47967;51.756;10.174;2023-01-27T18:20:43;100773.81;;;2.43;82.10
62011;BME280;47967;51.756;10.174;2023-01-27T18:24:48;100768.59;;;2.41;82.27
62011;BME280;47967;51.756;10.174;2023-01-27T18:28:55;100777.09;;;2.35;82.62
62011;BME280;47967;51.756;10.174;2023-01-27T18:33:02;100778.19;;;2.32;82.94
62011;BME280;47967;51.756;10.174;2023-01-27T18:37:23;100783.75;;;2.18;82.75
62011;BME280;47967;51.756;10.174;2023-01-27T18:41:27;100790.75;;;2.19;83.29
62011;BME280;47967;51.756;10.174;2023-01-27T18:45:32;100793.91;;;2.13;83.19
62011;BME280;47967;51.756;10.174;2023-01-27T18:49:36;100800.06;;;2.24;83.31
62011;BME280;47967;51.756;10.174;2023-01-27T18:53:38;100798.00;;;2.28;82.16
62011;BME280;47967;51.756;10.174;2023-01-27T18:57:42;100798.75;;;2.30;81.48
62011;BME280;47967;51.756;10.174;2023-01-27T19:01:44;100795.47;;;2.38;81.03
62011;BME280;47967;51.756;10.174;2023-01-27T19:05:49;100798.13;;;2.38;80.26
62011;BME280;47967;51.756;10.174;2023-01-27T19:09:51;100794.88;;;2.46;80.11
62011;BME280;47967;51.756;10.174;2023-01-27T19:13:54;100799.47;;;2.44;78.99
62011;BME280;47967;51.756;10.174;2023-01-27T19:17:58;100799.13;;;2.48;79.13
62011;BME280;47967;51.756;10.174;2023-01-27T19:22:02;100799.59;;;2.53;78.32
62011;BME280;47967;51.756;10.174;2023-01-27T19:26:12;100807.72;;;2.52;77.70
62011;BME280;47967;51.756;10.174;2023-01-27T19:30:22;100800.06;;;2.47;76.97
62011;BME280;47967;51.756;10.174;2023-01-27T19:34:25;100802.25;;;2.53;76.88
62011;BME280;47967;51.756;10.174;2023-01-27T19:38:29;100806.47;;;2.56;76.90
62011;BME280;47967;51.756;10.174;2023-01-27T19:42:32;100807.09;;;2.48;77.08
62011;BME280;47967;51.756;10.174;2023-01-27T19:46:34;100810.59;;;2.49;77.23
62011;BME280;47967;51.756;10.174;2023-01-27T19:50:37;100809.88;;;2.35;77.35
62011;BME280;47967;51.756;10.174;2023-01-27T19:54:41;100815.47;;;2.32;77.98
62011;BME280;47967;51.756;10.174;2023-01-27T19:58:45;100820.78;;;2.32;78.70
62011;BME280;47967;51.756;10.174;2023-01-27T20:02:50;100819.44;;;2.27;78.93
62011;BME280;47967;51.756;10.174;2023-01-27T20:06:52;100819.91;;;2.32;78.65
62011;BME280;47967;51.756;10.174;2023-01-27T20:10:56;100814.38;;;2.23;77.64
62011;BME280;47967;51.756;10.174;2023-01-27T20:14:59;100822.59;;;2.32;77.52
62011;BME280;47967;51.756;10.174;2023-01-27T20:19:02;100812.94;;;2.31;76.79
62011;BME280;47967;51.756;10.174;2023-01-27T20:23:05;100816.56;;;2.30;76.13
62011;BME280;47967;51.756;10.174;2023-01-27T20:27:09;100822.00;;;2.39;76.58
62011;BME280;47967;51.756;10.174;2023-01-27T20:31:13;100820.66;;;2.45;75.52
62011;BME280;47967;51.756;10.174;2023-01-27T20:35:18;100834.81;;;2.34;75.09
62011;BME280;47967;51.756;10.174;2023-01-27T20:39:21;100824.28;;;2.21;75.15
62011;BME280;47967;51.756;10.174;2023-01-27T20:43:25;100829.97;;;2.28;76.08
62011;BME280;47967;51.756;10.174;2023-01-27T20:47:36;100828.16;;;2.29;75.99
62011;BME280;47967;51.756;10.174;2023-01-27T20:51:38;100841.63;;;2.27;75.99
62011;BME280;47967;51.756;10.174;2023-01-27T20:55:41;100843.16;;;2.18;75.37
62011;BME280;47967;51.756;10.174;2023-01-27T20:59:45;100838.94;;;2.27;75.25
62011;BME280;47967;51.756;10.174;2023-01-27T21:03:48;100840.25;;;2.21;75.17
62011;BME280;47967;51.756;10.174;2023-01-27T21:07:51;100843.16;;;2.18;75.45
62011;BME280;47967;51.756;10.174;2023-01-27T21:11:53;100849.59;;;2.27;75.47
62011;BME280;47967;51.756;10.174;2023-01-27T21:15:57;100850.03;;;2.10;74.44
62011;BME280;47967;51.756;10.174;2023-01-27T21:20:02;100849.94;;;2.22;74.76
62011;BME280;47967;51.756;10.174;2023-01-27T21:24:05;100854.19;;;2.25;74.08
62011;BME280;47967;51.756;10.174;2023-01-27T21:28:08;100854.28;;;2.12;74.60
62011;BME280;47967;51.756;10.174;2023-01-27T21:32:12;100867.50;;;2.25;73.79
62011;BME280;47967;51.756;10.174;2023-01-27T21:36:16;100856.47;;;2.18;74.19
62011;BME280;47967;51.756;10.174;2023-01-27T21:40:18;100847.03;;;2.26;73.65
62011;BME280;47967;51.756;10.174;2023-01-27T21:44:23;100847.16;;;2.24;73.23
62011;BME280;47967;51.756;10.174;2023-01-27T21:48:44;100845.34;;;2.24;73.49
62011;BME280;47967;51.756;10.174;2023-01-27T21:52:48;100839.44;;;2.32;73.25
62011;BME280;47967;51.756;10.174;2023-01-27T21:56:51;100848.47;;;2.18;73.19
